Time;durP1;ratioP1;P1;durP2;ratioP2;P2;SDS_P1;SDS_P2;PMS_P1;PMS_P2;Temp;Humidity;BMP_temperature;BMP_pressure;BME280_temperature;BME280_humidity;BME280_pressure;Samples;Min_cycle;Max_cycle;Signal;HPM_P1;HPM_P2
2022/11/18 00:01:13;;;;;;;17.77;11.63;;;10.90;49.70;;;;;;5033585;28;20233;-44
2022/11/18 00:03:40;;;;;;;17.35;11.48;;;10.80;49.60;;;;;;5033838;28;20182;-42
2022/11/18 00:06:09;;;;;;;16.02;11.13;;;10.80;49.70;;;;;;5033021;28;20162;-43
2022/11/18 00:08:35;;;;;;;17.08;11.93;;;10.80;49.80;;;;;;5033253;28;20185;-45
2022/11/18 00:11:08;;;;;;;15.00;11.77;;;10.80;49.80;;;;;;5032888;28;20588;-46
2022/11/18 00:16:19;;;;;;;13.65;11.65;;;10.80;49.70;;;;;;5032913;28;20180;-43
2022/11/18 00:18:45;;;;;;;19.13;12.93;;;10.80;49.80;;;;;;5033386;28;20202;-45
2022/11/18 00:21:12;;;;;;;16.47;12.07;;;10.70;49.90;;;;;;5033819;28;20190;-45
2022/11/18 00:23:38;;;;;;;17.90;12.50;;;10.70;50.00;;;;;;5033562;28;20253;-45
2022/11/18 00:26:09;;;;;;;22.58;14.93;;;10.70;50.20;;;;;;5033495;28;20212;-44
2022/11/18 00:28:35;;;;;;;17.35;11.77;;;10.60;50.20;;;;;;5033660;28;20203;-46
2022/11/18 00:31:12;;;;;;;19.65;13.50;;;10.60;50.30;;;;;;5033875;28;20210;-45
2022/11/18 00:33:39;;;;;;;17.63;11.60;;;10.70;50.40;;;;;;5033372;28;20205;-44
2022/11/18 00:36:07;;;;;;;16.77;11.95;;;10.70;50.40;;;;;;5032392;28;20185;-44
2022/11/18 00:38:33;;;;;;;17.13;12.70;;;10.80;50.30;;;;;;5032832;28;20252;-44
2022/11/18 00:41:06;;;;;;;14.30;10.87;;;10.80;50.20;;;;;;5032807;28;20194;-42
2022/11/18 00:43:33;;;;;;;17.08;11.98;;;10.80;50.20;;;;;;5033088;28;20399;-44
2022/11/18 00:45:59;;;;;;;18.70;13.07;;;10.80;50.20;;;;;;5032469;28;20174;-44
2022/11/18 00:48:25;;;;;;;15.50;12.25;;;10.80;50.30;;;;;;5032688;28;20671;-44
2022/11/18 00:50:53;;;;;;;16.25;12.80;;;10.80;50.30;;;;;;5032688;28;20342;-42
2022/11/18 00:53:21;;;;;;;18.90;12.60;;;10.80;50.30;;;;;;5032560;28;20225;-43
2022/11/18 00:55:47;;;;;;;17.15;12.00;;;10.90;50.30;;;;;;5031917;28;20185;-43
2022/11/18 00:58:14;;;;;;;18.87;14.47;;;10.90;50.20;;;;;;5032501;28;20197;-42
2022/11/18 01:00:44;;;;;;;16.30;12.43;;;10.90;50.00;;;;;;5032374;28;20451;-42
2022/11/18 01:03:11;;;;;;;23.85;15.15;;;10.90;50.00;;;;;;5032615;28;20634;-45
2022/11/18 01:05:38;;;;;;;15.25;12.32;;;10.80;49.80;;;;;;5031950;28;20197;-42
2022/11/18 01:08:08;;;;;;;18.40;12.73;;;10.80;49.90;;;;;;5032027;28;20189;-43
2022/11/18 01:10:35;;;;;;;17.50;11.73;;;10.80;50.20;;;;;;5032392;28;20205;-45
2022/11/18 01:13:21;;;;;;;18.98;11.60;;;10.80;50.20;;;;;;5032660;28;20181;-43
2022/11/18 01:15:51;;;;;;;17.55;12.93;;;10.80;50.20;;;;;;5032067;28;20642;-43
2022/11/18 01:18:19;;;;;;;20.73;12.55;;;10.80;50.10;;;;;;5032534;28;20217;-44
2022/11/18 01:20:45;;;;;;;14.20;12.20;;;10.80;50.20;;;;;;5032219;28;20201;-45
2022/11/18 01:23:12;;;;;;;16.70;12.02;;;10.70;50.30;;;;;;5032377;28;20657;-43
2022/11/18 01:25:40;;;;;;;20.05;12.82;;;10.70;50.50;;;;;;5031945;28;20264;-43
2022/11/18 01:28:06;;;;;;;16.83;12.77;;;10.70;50.50;;;;;;5032654;28;20184;-42
2022/11/18 01:30:33;;;;;;;19.17;13.20;;;10.70;50.70;;;;;;5032548;28;20198;-43
2022/11/18 01:33:00;;;;;;;20.05;13.25;;;10.70;50.70;;;;;;5032390;28;20182;-44
2022/11/18 01:35:25;;;;;;;17.27;12.55;;;10.60;50.60;;;;;;5032237;28;20174;-43
2022/11/18 01:37:51;;;;;;;19.73;12.00;;;10.60;50.70;;;;;;5031689;28;20563;-43
2022/11/18 01:40:17;;;;;;;16.90;12.47;;;10.60;50.80;;;;;;5032303;28;20182;-45
2022/11/18 01:42:43;;;;;;;19.07;13.13;;;10.60;50.90;;;;;;5032414;28;20174;-45
2022/11/18 01:45:38;;;;;;;14.27;10.82;;;10.70;50.90;;;;;;5032120;28;20401;-42
2022/11/18 01:48:15;;;;;;;15.73;11.50;;;10.70;50.80;;;;;;5032232;28;20182;-44
2022/11/18 01:50:45;;;;;;;16.67;11.98;;;10.70;50.90;;;;;;5032312;28;20197;-43
2022/11/18 01:53:26;;;;;;;17.05;12.05;;;10.70;50.90;;;;;;5031974;28;20186;-44
2022/11/18 01:55:55;;;;;;;19.75;12.57;;;10.70;50.70;;;;;;5031268;28;20656;-42
2022/11/18 01:58:28;;;;;;;18.70;12.55;;;10.70;50.80;;;;;;5031737;28;20570;-42
2022/11/18 02:00:53;;;;;;;19.70;12.52;;;10.70;50.90;;;;;;5031825;28;20296;-44
2022/11/18 02:03:20;;;;;;;18.90;12.10;;;10.70;51.00;;;;;;5032460;28;20262;-43
2022/11/18 02:05:49;;;;;;;17.48;11.93;;;10.70;50.90;;;;;;5031603;28;20654;-44
2022/11/18 02:08:17;;;;;;;13.25;9.80;;;10.70;50.90;;;;;;5031949;28;20177;-44
2022/11/18 02:10:43;;;;;;;15.82;11.48;;;10.70;51.00;;;;;;5032148;28;20247;-45
2022/11/18 02:13:10;;;;;;;18.07;11.87;;;10.70;51.10;;;;;;5032311;28;20265;-44
2022/11/18 02:15:45;;;;;;;16.63;12.00;;;10.80;51.00;;;;;;5031599;28;20401;-44
2022/11/18 02:18:19;;;;;;;18.88;11.82;;;10.80;51.00;;;;;;5032074;28;20193;-44
2022/11/18 02:20:46;;;;;;;14.57;11.85;;;10.80;51.00;;;;;;5031953;28;20197;-45
2022/11/18 02:23:21;;;;;;;17.60;11.57;;;10.80;51.00;;;;;;5032441;28;20257;-43
2022/11/18 02:26:17;;;;;;;17.70;11.35;;;10.80;51.00;;;;;;5031796;28;20170;-44
2022/11/18 02:29:08;;;;;;;13.93;10.85;;;10.90;50.90;;;;;;5031928;28;20185;-44
2022/11/18 02:31:58;;;;;;;17.35;12.25;;;10.80;50.80;;;;;;5031938;28;20283;-45
2022/11/18 02:34:33;;;;;;;17.40;12.10;;;10.80;50.80;;;;;;5035243;28;20182;-45
2022/11/18 02:37:19;;;;;;;15.00;10.70;;;10.80;50.80;;;;;;5034712;28;20197;-44
2022/11/18 02:40:19;;;;;;;17.80;11.85;;;10.90;51.00;;;;;;5035501;28;20166;-44
2022/11/18 02:42:55;;;;;;;13.43;10.60;;;10.80;50.90;;;;;;5022027;28;20182;-44
2022/11/18 02:45:21;;;;;;;16.77;11.73;;;10.80;50.90;;;;;;5035379;28;20154;-44
2022/11/18 02:47:49;;;;;;;16.38;11.00;;;10.90;51.00;;;;;;5034664;28;20170;-44
2022/11/18 02:50:20;;;;;;;15.90;11.15;;;10.90;51.00;;;;;;5034999;28;20605;-44
2022/11/18 02:52:48;;;;;;;15.13;10.90;;;10.90;50.90;;;;;;5035361;28;20166;-44
2022/11/18 02:55:15;;;;;;;16.08;11.43;;;10.90;50.90;;;;;;5035317;28;20193;-44
2022/11/18 02:57:44;;;;;;;22.40;11.98;;;10.90;50.80;;;;;;5034512;28;20233;-44
2022/11/18 03:00:10;;;;;;;16.30;11.50;;;10.90;50.80;;;;;;5034873;28;20205;-44
2022/11/18 03:02:44;;;;;;;13.68;10.82;;;10.90;50.70;;;;;;5034859;28;20587;-44
2022/11/18 03:05:54;;;;;;;15.52;11.60;;;10.90;50.70;;;;;;5035020;28;20180;-44
2022/11/18 03:08:24;;;;;;;14.27;10.60;;;10.90;50.80;;;;;;4973674;28;20233;-44
2022/11/18 03:11:00;;;;;;;17.15;10.70;;;10.90;50.70;;;;;;4973577;28;20222;-45
2022/11/18 03:13:34;;;;;;;13.15;10.65;;;10.90;50.80;;;;;;4973508;28;20227;-45
2022/11/18 03:16:17;;;;;;;13.95;10.32;;;10.90;50.80;;;;;;4972886;28;20660;-44
2022/11/18 03:18:56;;;;;;;16.17;11.25;;;10.90;50.80;;;;;;4973562;28;20214;-43
2022/11/18 03:21:33;;;;;;;15.05;10.50;;;10.90;50.80;;;;;;4973307;28;20192;-45
2022/11/18 03:24:13;;;;;;;15.18;10.82;;;10.90;50.80;;;;;;4973401;28;20168;-44
2022/11/18 03:26:46;;;;;;;14.45;10.90;;;10.90;50.70;;;;;;4972697;28;20180;-44
2022/11/18 03:29:22;;;;;;;13.43;9.50;;;10.90;50.80;;;;;;4973238;28;20255;-44
2022/11/18 03:32:16;;;;;;;13.85;10.27;;;10.90;50.80;;;;;;4973068;28;20298;-44
2022/11/18 03:34:47;;;;;;;14.27;10.77;;;10.90;50.80;;;;;;4973142;28;20532;-44
2022/11/18 03:37:15;;;;;;;13.50;9.43;;;10.90;50.90;;;;;;4972415;28;20237;-43
2022/11/18 03:39:47;;;;;;;15.93;9.93;;;10.90;50.80;;;;;;5018754;28;20228;-44
2022/11/18 03:42:47;;;;;;;14.82;10.38;;;10.90;50.70;;;;;;5034100;28;20174;-43
2022/11/18 03:45:40;;;;;;;13.77;10.05;;;11.00;50.60;;;;;;5033864;28;20261;-44
2022/11/18 03:48:23;;;;;;;13.82;10.07;;;11.00;50.70;;;;;;5033457;28;20186;-44
2022/11/18 03:50:58;;;;;;;20.02;11.45;;;10.90;50.60;;;;;;5034048;28;20194;-44
2022/11/18 03:53:26;;;;;;;22.13;11.73;;;10.90;50.60;;;;;;5033942;28;20569;-44
2022/11/18 03:56:00;;;;;;;14.75;11.18;;;10.90;50.60;;;;;;5033420;28;20186;-44
2022/11/18 03:58:31;;;;;;;17.95;10.50;;;10.80;50.60;;;;;;5034057;28;20248;-44
2022/11/18 04:01:07;;;;;;;14.90;11.80;;;10.90;50.70;;;;;;5033475;28;20252;-44
2022/11/18 04:03:33;;;;;;;17.45;12.05;;;10.80;50.60;;;;;;5033665;28;20646;-45
2022/11/18 04:06:08;;;;;;;17.77;12.00;;;10.80;50.50;;;;;;5033080;28;20197;-44
2022/11/18 04:08:38;;;;;;;18.58;12.50;;;10.80;50.50;;;;;;5033765;28;20824;-45
2022/11/18 04:14:11;;;;;;;15.80;11.38;;;10.60;50.20;;;;;;5033737;28;20251;-44
2022/11/18 04:16:42;;;;;;;16.38;12.00;;;10.50;50.40;;;;;;5032812;28;20174;-45
2022/11/18 04:19:08;;;;;;;18.70;12.55;;;10.50;50.50;;;;;;5033436;28;20202;-45
2022/11/18 04:21:34;;;;;;;16.15;12.73;;;10.50;50.60;;;;;;5033190;28;20259;-45
2022/11/18 04:24:00;;;;;;;18.30;13.07;;;10.50;50.40;;;;;;5033161;28;20682;-44
2022/11/18 04:26:25;;;;;;;17.10;13.55;;;10.50;50.30;;;;;;5032682;28;20181;-45
2022/11/18 04:28:51;;;;;;;19.27;14.10;;;10.50;50.50;;;;;;5033044;28;20538;-44
2022/11/18 04:31:17;;;;;;;19.97;13.53;;;10.50;50.60;;;;;;5033124;28;20197;-44
2022/11/18 04:33:42;;;;;;;17.53;12.77;;;10.50;50.40;;;;;;5033276;28;20213;-44
2022/11/18 04:36:08;;;;;;;17.57;13.60;;;10.50;50.40;;;;;;5032758;28;20182;-45
2022/11/18 04:38:34;;;;;;;19.53;12.90;;;10.40;50.40;;;;;;5032759;28;20209;-45
2022/11/18 04:41:00;;;;;;;18.13;12.97;;;10.40;50.10;;;;;;5033064;28;20437;-45
2022/11/18 04:43:25;;;;;;;20.40;14.90;;;10.40;50.00;;;;;;5032928;28;20252;-45
2022/11/18 04:45:51;;;;;;;18.17;12.77;;;10.40;49.90;;;;;;5032336;28;20174;-45
2022/11/18 04:48:18;;;;;;;21.10;14.57;;;10.30;49.80;;;;;;5032983;28;20170;-43
2022/11/18 04:50:43;;;;;;;19.70;14.05;;;10.30;49.60;;;;;;5032730;28;20256;-44
2022/11/18 04:53:09;;;;;;;19.60;14.63;;;10.20;49.50;;;;;;5032764;28;20570;-44
2022/11/18 04:55:36;;;;;;;16.90;12.43;;;10.10;49.50;;;;;;5031822;28;20409;-43
2022/11/18 04:58:02;;;;;;;18.83;12.50;;;10.10;49.70;;;;;;5032610;28;20606;-44
2022/11/18 05:00:28;;;;;;;18.70;13.30;;;10.10;50.00;;;;;;5032709;28;20217;-44
2022/11/18 05:02:54;;;;;;;20.93;14.50;;;10.10;50.10;;;;;;5032837;28;20247;-44
2022/11/18 05:05:19;;;;;;;20.40;13.43;;;10.10;50.00;;;;;;5032464;28;20583;-43
2022/11/18 05:07:45;;;;;;;21.10;13.60;;;10.10;50.00;;;;;;5031986;28;20177;-44
2022/11/18 05:10:11;;;;;;;23.23;13.13;;;10.00;50.00;;;;;;5032618;28;20193;-45
2022/11/18 05:12:48;;;;;;;20.60;14.70;;;10.10;50.00;;;;;;5032368;28;20660;-45
2022/11/18 05:15:19;;;;;;;16.63;13.63;;;10.10;50.00;;;;;;5032417;28;20181;-44
2022/11/18 05:17:45;;;;;;;20.23;12.45;;;10.10;49.90;;;;;;5031661;28;20198;-44
2022/11/18 05:20:12;;;;;;;19.80;14.32;;;10.00;49.60;;;;;;5032361;28;20182;-44
2022/11/18 05:22:39;;;;;;;19.83;12.35;;;10.00;49.50;;;;;;5032280;28;20687;-44
2022/11/18 05:25:05;;;;;;;21.67;13.43;;;10.00;49.50;;;;;;5032385;28;20185;-45
2022/11/18 05:27:31;;;;;;;18.73;12.32;;;9.90;49.60;;;;;;5031901;28;20511;-44
2022/11/18 05:29:57;;;;;;;20.43;13.87;;;9.90;49.50;;;;;;5032392;28;20668;-44
2022/11/18 05:32:22;;;;;;;18.60;13.20;;;9.90;49.80;;;;;;5031988;28;20196;-44
2022/11/18 05:34:48;;;;;;;19.67;13.20;;;9.90;49.80;;;;;;5032075;28;20511;-44
2022/11/18 05:37:14;;;;;;;19.73;12.23;;;9.80;49.60;;;;;;5031376;28;20213;-45
2022/11/18 05:39:40;;;;;;;19.17;12.03;;;9.80;49.50;;;;;;5032309;28;20177;-45
2022/11/18 05:44:50;;;;;;;18.27;14.68;;;9.80;49.60;;;;;;5032087;28;20756;-45
2022/11/18 05:47:17;;;;;;;20.55;12.88;;;9.80;49.60;;;;;;5031305;28;20177;-45
2022/11/18 05:49:43;;;;;;;17.55;13.73;;;9.80;49.40;;;;;;5032204;28;20580;-43
2022/11/18 05:52:09;;;;;;;23.00;14.70;;;9.80;49.60;;;;;;5031920;28;20242;-45
2022/11/18 05:54:41;;;;;;;18.63;12.47;;;9.80;49.60;;;;;;5032129;28;20256;-44
2022/11/18 05:57:06;;;;;;;18.83;13.50;;;9.80;49.60;;;;;;5031211;28;20194;-44
2022/11/18 05:59:32;;;;;;;19.13;13.20;;;9.80;49.50;;;;;;5031700;28;20209;-45
2022/11/18 06:02:02;;;;;;;19.10;12.43;;;9.80;49.50;;;;;;5031680;28;20202;-44
2022/11/18 06:04:53;;;;;;;19.35;12.93;;;9.80;49.40;;;;;;5031836;28;20629;-45
2022/11/18 06:07:33;;;;;;;18.35;11.75;;;9.80;49.30;;;;;;5032801;28;20186;-44
2022/11/18 06:10:00;;;;;;;21.13;13.35;;;9.70;49.40;;;;;;5035791;28;20191;-44
2022/11/18 06:12:30;;;;;;;18.45;12.05;;;9.70;49.30;;;;;;5035965;28;20260;-45
2022/11/18 06:15:16;;;;;;;19.17;13.00;;;9.70;49.30;;;;;;5035895;28;20185;-44
2022/11/18 06:18:11;;;;;;;19.00;13.60;;;9.70;49.10;;;;;;5034896;28;20209;-45
2022/11/18 06:20:40;;;;;;;18.85;12.10;;;9.60;49.10;;;;;;5027227;28;20212;-44
2022/11/18 06:23:06;;;;;;;17.13;12.05;;;9.60;49.20;;;;;;5035352;28;20235;-44
2022/11/18 06:25:32;;;;;;;25.70;12.37;;;9.60;49.20;;;;;;5035313;28;20180;-44
2022/11/18 06:28:01;;;;;;;18.60;10.93;;;9.60;49.00;;;;;;5035463;28;20181;-45
2022/11/18 06:30:27;;;;;;;20.73;11.52;;;9.60;49.00;;;;;;5035164;28;20718;-45
2022/11/18 06:32:52;;;;;;;19.10;11.65;;;9.50;49.00;;;;;;5035107;28;20271;-45
2022/11/18 06:35:18;;;;;;;16.97;12.30;;;9.50;49.00;;;;;;5035226;28;20258;-45
2022/11/18 06:37:45;;;;;;;16.53;12.37;;;9.50;49.00;;;;;;5034524;28;20303;-45
2022/11/18 06:40:11;;;;;;;15.68;10.98;;;9.40;48.90;;;;;;5035189;28;20178;-45
2022/11/18 06:45:21;;;;;;;17.20;12.02;;;9.40;48.90;;;;;;5035253;28;20882;-45
2022/11/18 06:47:47;;;;;;;18.47;12.07;;;9.40;48.90;;;;;;5034380;28;20193;-45
2022/11/18 06:50:13;;;;;;;19.50;13.00;;;9.40;49.10;;;;;;5034932;28;20435;-44
2022/11/18 06:52:38;;;;;;;17.90;11.77;;;9.30;49.30;;;;;;5034819;28;20277;-45
2022/11/18 06:55:07;;;;;;;17.50;11.40;;;9.30;49.10;;;;;;5034850;28;20273;-45
2022/11/18 06:57:33;;;;;;;18.25;11.93;;;9.30;48.90;;;;;;5034308;28;20294;-45
2022/11/18 06:59:59;;;;;;;19.20;12.57;;;9.30;48.90;;;;;;5034723;28;20219;-44
2022/11/18 07:02:25;;;;;;;18.20;11.53;;;9.30;48.70;;;;;;5034995;28;20160;-45
2022/11/18 07:04:50;;;;;;;21.50;13.10;;;9.20;48.10;;;;;;5034910;28;20415;-45
2022/11/18 07:07:16;;;;;;;16.77;11.67;;;9.20;48.30;;;;;;5034110;28;20174;-44
2022/11/18 07:09:42;;;;;;;21.53;12.83;;;9.10;48.60;;;;;;5034464;28;20172;-44
2022/11/18 07:12:08;;;;;;;20.67;12.63;;;9.10;48.80;;;;;;5034553;28;20180;-45
2022/11/18 07:14:33;;;;;;;18.33;13.30;;;9.10;48.80;;;;;;5034726;28;20187;-44
2022/11/18 07:16:59;;;;;;;17.80;12.33;;;9.10;48.40;;;;;;5033838;28;20589;-45
2022/11/18 07:19:25;;;;;;;19.10;12.70;;;9.00;48.50;;;;;;5034106;28;20646;-45
2022/11/18 07:21:51;;;;;;;15.83;11.43;;;9.10;48.70;;;;;;5034393;28;20193;-44
2022/11/18 07:24:16;;;;;;;17.87;12.13;;;9.00;48.30;;;;;;5034507;28;20181;-43
2022/11/18 07:26:42;;;;;;;20.47;13.10;;;9.00;48.30;;;;;;5033801;28;20192;-45
2022/11/18 07:29:08;;;;;;;18.98;11.60;;;8.90;48.20;;;;;;5034219;28;20173;-44
2022/11/18 07:31:37;;;;;;;18.95;12.65;;;8.90;48.30;;;;;;5034064;28;20400;-45
2022/11/18 07:34:03;;;;;;;19.30;10.75;;;8.90;48.20;;;;;;5034441;28;20225;-44
2022/11/18 07:36:29;;;;;;;19.13;11.07;;;8.80;48.10;;;;;;5033523;28;20561;-44
2022/11/18 07:38:58;;;;;;;18.83;11.70;;;8.70;48.00;;;;;;5033945;28;20734;-44
2022/11/18 07:41:26;;;;;;;20.95;12.10;;;8.70;48.20;;;;;;5034194;28;20523;-44
2022/11/18 07:43:54;;;;;;;17.75;10.95;;;8.60;48.20;;;;;;5033974;28;20170;-45
2022/11/18 07:46:23;;;;;;;16.20;11.18;;;8.60;48.30;;;;;;5033327;28;20221;-45
2022/11/18 07:48:52;;;;;;;17.08;11.23;;;8.60;48.40;;;;;;5034068;28;20186;-44
2022/11/18 07:51:19;;;;;;;15.10;11.57;;;8.60;48.60;;;;;;5033777;28;20194;-45
2022/11/18 07:53:46;;;;;;;15.90;10.93;;;8.60;48.60;;;;;;5034018;28;20182;-45
2022/11/18 07:56:12;;;;;;;14.45;9.93;;;8.60;48.70;;;;;;5033044;28;20185;-45
2022/11/18 07:58:39;;;;;;;12.38;7.88;;;8.60;48.50;;;;;;5033793;28;20214;-44
2022/11/18 08:01:09;;;;;;;15.70;9.55;;;8.50;47.20;;;;;;5033493;28;20243;-43
2022/11/18 08:03:35;;;;;;;14.68;9.52;;;8.50;47.90;;;;;;5033626;28;20249;-44
2022/11/18 08:06:03;;;;;;;13.57;9.88;;;8.40;48.10;;;;;;5033158;28;20176;-46
2022/11/18 08:08:28;;;;;;;14.52;9.85;;;8.40;47.80;;;;;;5033466;28;20529;-45
2022/11/18 08:10:56;;;;;;;15.90;10.03;;;8.40;48.20;;;;;;5033311;28;20198;-43
2022/11/18 08:13:22;;;;;;;14.68;9.50;;;8.40;48.00;;;;;;5033299;28;20667;-46
2022/11/18 08:15:48;;;;;;;15.35;10.15;;;8.40;47.80;;;;;;5032757;28;20182;-43
2022/11/18 08:18:14;;;;;;;13.90;10.27;;;8.30;47.80;;;;;;5033240;28;20248;-45
2022/11/18 08:20:39;;;;;;;16.63;10.40;;;8.30;48.10;;;;;;5033145;28;20606;-44
2022/11/18 08:23:05;;;;;;;19.87;11.90;;;8.30;48.20;;;;;;5033157;28;20257;-44
2022/11/18 08:25:31;;;;;;;16.80;11.13;;;8.30;48.10;;;;;;5032697;28;20250;-44
2022/11/18 08:27:57;;;;;;;14.50;10.97;;;8.30;48.10;;;;;;5032819;28;20178;-42
2022/11/18 08:30:23;;;;;;;18.43;10.47;;;8.20;47.40;;;;;;5032094;28;20424;-45
2022/11/18 08:32:48;;;;;;;15.27;10.80;;;8.20;47.90;;;;;;5032906;28;20413;-46
2022/11/18 08:35:14;;;;;;;15.60;10.80;;;8.20;47.50;;;;;;5032884;28;20255;-45
2022/11/18 08:37:41;;;;;;;17.13;12.10;;;8.10;47.90;;;;;;5032348;28;20199;-46
2022/11/18 08:40:08;;;;;;;17.27;12.13;;;8.20;47.90;;;;;;5032794;28;20416;-44
2022/11/18 08:42:34;;;;;;;18.73;12.73;;;8.10;47.60;;;;;;5032936;28;20223;-44
2022/11/18 08:44:59;;;;;;;14.73;11.30;;;8.00;47.60;;;;;;5032947;28;20257;-44
2022/11/18 08:47:25;;;;;;;16.27;12.27;;;8.00;47.10;;;;;;5032135;28;20406;-44
2022/11/18 08:49:51;;;;;;;21.30;13.97;;;7.80;47.30;;;;;;5032609;28;20294;-44
2022/11/18 08:52:16;;;;;;;16.87;12.43;;;7.80;47.90;;;;;;5032653;28;20235;-44
2022/11/18 08:54:42;;;;;;;31.77;20.17;;;7.80;48.30;;;;;;5032543;28;20184;-44
2022/11/18 08:57:08;;;;;;;28.60;21.50;;;7.90;48.60;;;;;;5032228;28;20177;-44
2022/11/18 08:59:34;;;;;;;23.87;17.40;;;7.90;48.40;;;;;;5032501;28;20170;-44
2022/11/18 09:01:59;;;;;;;22.07;16.33;;;8.00;48.10;;;;;;5032754;28;20231;-44
2022/11/18 09:04:25;;;;;;;22.50;14.53;;;8.00;48.10;;;;;;5032491;28;20166;-45
2022/11/18 09:06:51;;;;;;;25.60;16.13;;;8.00;48.10;;;;;;5055686;23;20231;-43
2022/11/18 09:09:16;;;;;;;24.13;20.33;;;8.00;48.30;;;;;;5042666;28;20173;-42
2022/11/18 09:11:42;;;;;;;24.60;17.03;;;8.00;47.80;;;;;;5032404;28;20189;-40
2022/11/18 09:14:10;;;;;;;32.00;27.33;;;7.90;47.60;;;;;;5032289;28;20174;-41
2022/11/18 09:16:36;;;;;;;23.92;14.35;;;7.90;47.40;;;;;;5031915;28;20204;-42
2022/11/18 09:19:02;;;;;;;22.47;16.70;;;7.80;48.00;;;;;;5032136;28;20199;-41
2022/11/18 09:21:29;;;;;;;26.75;19.75;;;7.90;48.00;;;;;;5032285;28;20249;-41
2022/11/18 09:23:54;;;;;;;26.95;18.02;;;7.90;48.30;;;;;;5032266;28;20253;-40
2022/11/18 09:26:22;;;;;;;18.73;12.70;;;8.00;48.20;;;;;;5030419;28;20614;-42
2022/11/18 09:28:51;;;;;;;22.70;14.18;;;7.90;47.80;;;;;;5031991;28;20409;-42
2022/11/18 09:31:17;;;;;;;19.90;13.30;;;7.90;48.00;;;;;;5032126;28;20185;-41
2022/11/18 09:33:43;;;;;;;18.85;13.90;;;7.90;47.60;;;;;;5032320;28;20247;-43
2022/11/18 09:36:25;;;;;;;23.60;14.03;;;7.80;46.80;;;;;;5031431;28;20233;-42
2022/11/18 09:38:52;;;;;;;21.00;13.82;;;7.70;47.60;;;;;;5031907;28;21152;-41
2022/11/18 09:41:39;;;;;;;20.30;13.48;;;7.60;47.40;;;;;;5032889;28;20204;-42
2022/11/18 09:44:37;;;;;;;26.80;15.75;;;7.60;47.50;;;;;;5038810;28;20166;-41
2022/11/18 09:47:06;;;;;;;25.92;15.90;;;7.50;47.10;;;;;;5004566;28;20197;-42
2022/11/18 09:49:37;;;;;;;24.13;14.32;;;7.30;46.90;;;;;;5038542;28;20170;-42
2022/11/18 09:52:10;;;;;;;23.90;14.77;;;7.30;47.40;;;;;;5037316;28;20339;-41
2022/11/18 09:54:37;;;;;;;21.10;14.35;;;7.30;47.90;;;;;;5038462;28;20549;-42
2022/11/18 09:57:13;;;;;;;25.30;15.15;;;7.30;47.80;;;;;;5037715;28;20185;-42
2022/11/18 09:59:40;;;;;;;23.60;14.85;;;7.30;47.30;;;;;;5038573;28;20157;-41
2022/11/18 10:02:12;;;;;;;28.27;16.30;;;7.30;47.40;;;;;;5038571;28;20173;-42
2022/11/18 10:04:38;;;;;;;23.50;14.85;;;7.30;46.90;;;;;;5038365;28;20562;-42
2022/11/18 10:07:14;;;;;;;28.90;17.03;;;7.20;46.80;;;;;;5037688;28;20232;-41
2022/11/18 10:09:40;;;;;;;28.60;18.02;;;7.20;46.80;;;;;;5036022;28;20177;-41
2022/11/18 10:12:13;;;;;;;24.98;15.95;;;7.10;46.90;;;;;;5038296;28;20669;-42
2022/11/18 10:15:00;;;;;;;26.33;17.90;;;7.00;46.60;;;;;;5038591;28;20188;-42
2022/11/18 10:17:47;;;;;;;30.23;15.40;;;6.90;46.70;;;;;;5037690;28;20236;-41
2022/11/18 10:20:23;;;;;;;29.23;16.30;;;6.90;47.30;;;;;;5038336;28;20200;-40
2022/11/18 10:23:08;;;;;;;24.08;15.32;;;6.90;47.10;;;;;;5038431;28;20162;-42
2022/11/18 10:25:34;;;;;;;22.27;14.68;;;6.80;47.30;;;;;;5037528;28;20216;-40
2022/11/18 10:28:17;;;;;;;26.70;16.40;;;6.80;47.30;;;;;;5038216;28;20182;-42
2022/11/18 10:30:43;;;;;;;76.05;44.60;;;6.90;47.20;;;;;;5038228;28;20201;-42
2022/11/18 10:33:20;;;;;;;24.40;16.70;;;6.80;47.10;;;;;;5038180;28;20174;-43
2022/11/18 10:35:47;;;;;;;20.73;14.52;;;6.80;46.90;;;;;;5037521;28;20177;-41
2022/11/18 10:38:18;;;;;;;21.35;14.57;;;6.70;46.70;;;;;;5038028;28;20692;-42
2022/11/18 10:41:07;;;;;;;17.15;11.32;;;6.80;47.30;;;;;;5038031;28;20650;-40
2022/11/18 10:43:49;;;;;;;18.45;14.70;;;6.80;46.70;;;;;;5036708;28;20181;-42
2022/11/18 10:46:25;;;;;;;24.35;20.23;;;6.80;47.20;;;;;;5037366;28;20279;-41
2022/11/18 10:49:09;;;;;;;17.90;10.95;;;6.90;47.40;;;;;;5038341;28;20170;-40
2022/11/18 10:52:09;;;;;;;18.30;11.05;;;6.80;47.40;;;;;;5038283;28;20181;-40
2022/11/18 10:54:35;;;;;;;16.60;10.00;;;6.90;47.40;;;;;;5029749;28;20188;-41
2022/11/18 10:57:03;;;;;;;17.43;10.17;;;6.80;47.40;;;;;;5034581;28;20198;-41
2022/11/18 10:59:39;;;;;;;16.77;11.02;;;6.90;47.80;;;;;;5034849;28;20174;-40
2022/11/18 11:02:30;;;;;;;15.68;11.75;;;7.00;47.70;;;;;;5034810;28;20178;-40
2022/11/18 11:05:14;;;;;;;17.80;12.38;;;7.00;47.60;;;;;;5027537;28;20213;-41
2022/11/18 11:07:39;;;;;;;18.52;11.95;;;7.00;47.70;;;;;;5033733;28;20259;-41
2022/11/18 11:10:05;;;;;;;20.63;12.30;;;7.10;47.40;;;;;;5034678;28;20166;-41
2022/11/18 11:12:33;;;;;;;18.97;12.23;;;7.00;46.50;;;;;;5034827;28;20170;-41
2022/11/18 11:15:09;;;;;;;21.92;13.57;;;7.00;46.90;;;;;;5034535;28;20197;-41
2022/11/18 11:18:40;;;;;;;19.58;13.35;;;7.00;47.10;;;;;;5034085;28;20210;-40
2022/11/18 11:20:37;;;;;;;17.67;11.63;;;7.00;47.30;;;;;;5034357;28;20189;-40
2022/11/18 11:23:14;;;;;;;19.55;12.70;;;7.10;47.50;;;;;;5034392;28;20181;-40
2022/11/18 11:25:58;;;;;;;25.73;14.57;;;7.10;47.10;;;;;;5033680;28;20507;-41
2022/11/18 11:28:34;;;;;;;23.73;14.93;;;7.10;46.90;;;;;;5034423;28;20642;-40
2022/11/18 11:31:06;;;;;;;19.73;13.30;;;7.10;47.00;;;;;;5034372;28;20182;-40
2022/11/18 11:33:37;;;;;;;22.90;13.05;;;7.10;46.60;;;;;;5034067;28;20178;-41
2022/11/18 11:36:18;;;;;;;17.75;13.52;;;7.10;46.60;;;;;;5033711;28;20217;-41
2022/11/18 11:39:21;;;;;;;17.75;12.02;;;7.00;46.70;;;;;;5034219;28;20196;-41
2022/11/18 11:42:18;;;;;;;19.75;13.13;;;7.00;46.20;;;;;;5034348;28;20173;-41
2022/11/18 11:45:03;;;;;;;24.25;14.90;;;6.90;46.50;;;;;;5009248;28;20224;-42
2022/11/18 11:47:48;;;;;;;21.55;14.05;;;6.90;46.60;;;;;;5033602;28;20198;-42
2022/11/18 11:50:52;;;;;;;20.40;15.02;;;6.80;45.70;;;;;;5033863;28;20162;-42
2022/11/18 11:53:23;;;;;;;19.27;14.00;;;6.80;45.90;;;;;;5033760;28;20268;-42
2022/11/18 11:56:13;;;;;;;24.48;14.70;;;6.80;46.40;;;;;;5033172;28;20534;-43
2022/11/18 11:59:09;;;;;;;22.88;14.82;;;6.80;46.10;;;;;;5033858;28;20190;-43
2022/11/18 12:01:38;;;;;;;19.45;13.80;;;6.80;46.00;;;;;;5033997;28;20163;-42
2022/11/18 12:04:14;;;;;;;28.40;17.48;;;6.90;46.70;;;;;;5033579;28;20162;-41
2022/11/18 12:06:41;;;;;;;25.90;17.02;;;6.90;47.00;;;;;;5032943;28;20213;-42
2022/11/18 12:09:38;;;;;;;26.85;15.93;;;6.90;46.40;;;;;;5033689;28;20174;-43
2022/11/18 12:12:33;;;;;;;24.38;16.27;;;6.90;45.30;;;;;;5033492;28;20644;-42
2022/11/18 12:14:59;;;;;;;25.42;16.83;;;6.80;45.00;;;;;;5033340;28;20549;-43
2022/11/18 12:17:33;;;;;;;26.20;16.42;;;6.70;45.80;;;;;;5032602;28;20236;-42
2022/11/18 12:19:58;;;;;;;28.52;18.40;;;6.60;46.20;;;;;;5032044;28;20542;-42
2022/11/18 12:23:23;;;;;;;23.83;16.57;;;6.70;46.60;;;;;;5033273;28;20189;-42
2022/11/18 12:25:59;;;;;;;24.83;15.48;;;6.70;46.70;;;;;;4971355;28;20180;-43
2022/11/18 12:28:32;;;;;;;28.90;18.75;;;6.80;46.60;;;;;;4972019;28;20756;-42
2022/11/18 12:31:21;;;;;;;29.25;20.00;;;6.80;46.60;;;;;;4972059;28;20607;-43
2022/11/18 12:33:54;;;;;;;27.67;17.50;;;6.80;46.00;;;;;;4971899;28;20600;-44
2022/11/18 12:36:31;;;;;;;28.85;18.92;;;6.80;45.50;;;;;;4971173;28;20223;-43
2022/11/18 12:38:58;;;;;;;30.90;17.92;;;6.70;46.00;;;;;;4971832;28;20242;-43
2022/11/18 12:44:25;;;;;;;29.10;18.77;;;6.70;46.20;;;;;;4971828;28;20191;-42
2022/11/18 12:46:56;;;;;;;26.38;17.90;;;6.70;46.30;;;;;;4971132;28;20266;-43
2022/11/18 12:49:21;;;;;;;32.38;19.02;;;5.70;45.30;;;;;;4971668;28;20187;-42
2022/11/18 12:52:01;;;;;;;32.47;19.53;;;6.60;45.90;;;;;;4971711;28;20176;-42
2022/11/18 12:54:47;;;;;;;27.55;18.88;;;6.60;45.80;;;;;;4971550;28;20272;-42
2022/11/18 12:57:19;;;;;;;32.30;21.05;;;6.60;45.60;;;;;;5017955;28;20542;-42
2022/11/18 12:59:45;;;;;;;31.02;19.88;;;6.60;45.60;;;;;;5032827;28;20166;-44
2022/11/18 13:02:10;;;;;;;32.53;20.23;;;6.50;45.90;;;;;;5032805;28;20185;-43
2022/11/18 13:04:37;;;;;;;31.67;20.73;;;6.50;45.90;;;;;;5032449;28;20174;-42
2022/11/18 13:08:11;;;;;;;35.15;21.45;;;6.50;45.10;;;;;;5031724;28;20228;-43
2022/11/18 13:09:52;;;;;;;35.03;21.58;;;6.40;45.70;;;;;;5032298;28;20174;-42